createdAt,value
2018-06-21T00:00:04.947Z,1011.33
2018-06-21T00:01:04.923Z,1011.32
2018-06-21T00:02:04.898Z,1011.27
2018-06-21T00:03:04.879Z,1011.25
2018-06-21T00:04:04.854Z,1011.30
2018-06-21T00:05:04.981Z,1011.27
2018-06-21T00:06:04.808Z,1011.25
2018-06-21T00:07:04.784Z,1011.26
2018-06-21T00:08:04.761Z,1011.26
2018-06-21T00:09:04.738Z,1011.28
2018-06-21T00:10:04.713Z,1011.28
2018-06-21T00:11:04.694Z,1011.28
2018-06-21T00:12:04.666Z,1011.28
2018-06-21T00:13:04.643Z,1011.27
2018-06-21T00:14:04.620Z,1011.27
2018-06-21T00:15:04.599Z,1011.27
2018-06-21T00:16:04.579Z,1011.26
2018-06-21T00:17:04.553Z,1011.27
2018-06-21T00:18:04.528Z,1011.25
2018-06-21T00:19:04.507Z,1011.26
2018-06-21T00:20:04.486Z,1011.24
2018-06-21T00:21:04.457Z,1011.25
2018-06-21T00:22:04.437Z,1011.18
2018-06-21T00:23:04.418Z,1011.19
2018-06-21T00:24:04.392Z,1011.25
2018-06-21T00:25:04.370Z,1011.25
2018-06-21T00:26:04.344Z,1011.19
2018-06-21T00:27:04.322Z,1011.19
2018-06-21T00:28:04.300Z,1011.15
2018-06-21T00:29:04.276Z,1011.12
2018-06-21T00:30:04.259Z,1011.17
2018-06-21T00:31:04.231Z,1011.11
2018-06-21T00:32:04.205Z,1011.12
2018-06-21T00:33:04.182Z,1011.12
2018-06-21T00:34:04.159Z,1011.11
2018-06-21T00:35:04.140Z,1011.07
2018-06-21T00:36:04.115Z,1011.06
2018-06-21T00:37:04.096Z,1011.03
2018-06-21T00:38:04.071Z,1011.00
2018-06-21T00:39:04.044Z,1011.01
2018-06-21T00:40:04.023Z,1011.01
2018-06-21T00:41:04.000Z,1010.94
2018-06-21T00:42:03.977Z,1010.91
2018-06-21T00:43:03.951Z,1010.89
2018-06-21T00:44:03.930Z,1010.90
2018-06-21T00:45:03.906Z,1010.86
2018-06-21T00:46:03.884Z,1010.88
2018-06-21T00:47:03.860Z,1010.83
2018-06-21T00:48:03.839Z,1010.87
2018-06-21T00:49:03.815Z,1010.84
2018-06-21T00:50:03.793Z,1010.83
2018-06-21T00:51:03.770Z,1010.83
2018-06-21T00:52:03.745Z,1010.80
2018-06-21T00:53:03.723Z,1010.80
2018-06-21T00:54:03.700Z,1010.79
2018-06-21T00:55:03.676Z,1010.72
2018-06-21T00:56:03.655Z,1010.71
2018-06-21T00:57:03.631Z,1010.73
2018-06-21T00:58:03.607Z,1010.66
2018-06-21T00:59:03.585Z,1010.61
2018-06-21T01:00:03.570Z,1010.63
2018-06-21T01:01:03.539Z,1010.63
2018-06-21T01:02:03.516Z,1010.62
2018-06-21T01:03:03.492Z,1010.63
2018-06-21T01:04:03.468Z,1010.62
2018-06-21T01:05:03.444Z,1010.63
2018-06-21T01:06:03.425Z,1010.60
2018-06-21T01:07:03.404Z,1010.60
2018-06-21T01:08:03.378Z,1010.60
2018-06-21T01:09:03.357Z,1010.56
2018-06-21T01:10:03.331Z,1010.59
2018-06-21T01:11:03.306Z,1010.58
2018-06-21T01:12:03.286Z,1010.55
2018-06-21T01:13:03.259Z,1010.50
2018-06-21T01:14:03.247Z,1010.50
2018-06-21T01:15:03.214Z,1010.42
2018-06-21T01:16:03.191Z,1010.40
2018-06-21T01:17:03.180Z,1010.38
2018-06-21T01:18:03.146Z,1010.41
2018-06-21T01:19:03.122Z,1010.39
2018-06-21T01:20:03.101Z,1010.40
2018-06-21T01:21:03.076Z,1010.37
2018-06-21T01:22:03.054Z,1010.36
2018-06-21T01:23:03.030Z,1010.33
2018-06-21T01:24:03.010Z,1010.27
2018-06-21T01:25:02.982Z,1010.27
2018-06-21T01:26:02.962Z,1010.23
2018-06-21T01:27:02.939Z,1010.21
2018-06-21T01:28:02.917Z,1010.20
2018-06-21T01:29:02.892Z,1010.23
2018-06-21T01:30:02.870Z,1010.23
2018-06-21T01:31:02.844Z,1010.19
2018-06-21T01:32:02.822Z,1010.22
2018-06-21T01:33:02.798Z,1010.19
2018-06-21T01:34:02.775Z,1010.21
2018-06-21T01:35:02.759Z,1010.21
2018-06-21T01:36:02.732Z,1010.16
2018-06-21T01:37:02.719Z,1010.20
2018-06-21T01:38:02.686Z,1010.18
2018-06-21T01:39:02.666Z,1010.16
2018-06-21T01:40:02.641Z,1010.15
2018-06-21T01:41:02.625Z,1010.18
2018-06-21T01:42:02.591Z,1010.19
2018-06-21T01:43:02.573Z,1010.13
2018-06-21T01:44:02.546Z,1010.10
2018-06-21T01:45:02.536Z,1010.06
2018-06-21T01:46:02.501Z,1010.03
2018-06-21T01:47:02.486Z,1010.00
2018-06-21T01:48:02.456Z,1009.98
2018-06-21T01:49:02.432Z,1009.99
2018-06-21T01:50:02.408Z,1009.99
2018-06-21T01:51:02.385Z,1009.96
2018-06-21T01:52:02.362Z,1009.92
2018-06-21T01:53:02.338Z,1009.96
2018-06-21T01:54:02.319Z,1009.94
2018-06-21T01:55:02.293Z,1009.94
2018-06-21T01:56:02.273Z,1009.97
2018-06-21T01:57:02.254Z,1009.97
2018-06-21T01:58:02.224Z,1009.96
2018-06-21T01:59:02.203Z,1009.98
2018-06-21T02:00:02.180Z,1009.97
2018-06-21T02:01:02.158Z,1009.93
2018-06-21T02:02:02.133Z,1009.90
2018-06-21T02:03:02.107Z,1009.92
2018-06-21T02:04:02.085Z,1009.87
2018-06-21T02:05:02.062Z,1009.85
2018-06-21T02:06:02.038Z,1009.80
2018-06-21T02:07:02.023Z,1009.77
2018-06-21T02:08:02.025Z,1009.76
2018-06-21T02:09:01.969Z,1009.72
2018-06-21T02:10:01.951Z,1009.71
2018-06-21T02:11:01.924Z,1009.69
2018-06-21T02:12:01.900Z,1009.69
2018-06-21T02:13:01.880Z,1009.67
2018-06-21T02:14:01.853Z,1009.70
2018-06-21T02:15:01.841Z,1009.65
2018-06-21T02:16:01.809Z,1009.63
2018-06-21T02:17:01.785Z,1009.62
2018-06-21T02:18:01.763Z,1009.65
2018-06-21T02:19:01.742Z,1009.62
2018-06-21T02:20:01.719Z,1009.64
2018-06-21T02:21:01.693Z,1009.61
2018-06-21T02:22:01.673Z,1009.56
2018-06-21T02:23:01.645Z,1009.59
2018-06-21T02:24:01.621Z,1009.58
2018-06-21T02:25:01.598Z,1009.50
2018-06-21T02:26:01.575Z,1009.54
2018-06-21T02:27:01.552Z,1009.50
2018-06-21T02:28:01.531Z,1009.47
2018-06-21T02:29:01.507Z,1009.43
2018-06-21T02:30:01.484Z,1009.44
2018-06-21T02:31:01.467Z,1009.38
2018-06-21T02:32:01.439Z,1009.33
2018-06-21T02:33:01.418Z,1009.42
2018-06-21T02:34:01.392Z,1009.38
2018-06-21T02:35:01.367Z,1009.36
2018-06-21T02:36:01.342Z,1009.39
2018-06-21T02:37:01.318Z,1009.35
2018-06-21T02:38:01.296Z,1009.33
2018-06-21T02:39:01.274Z,1009.32
2018-06-21T02:40:01.256Z,1009.30
2018-06-21T02:41:01.228Z,1009.33
2018-06-21T02:42:01.208Z,1009.29
2018-06-21T02:43:01.230Z,1009.27
2018-06-21T02:44:01.157Z,1009.30
2018-06-21T02:45:01.134Z,1009.28
2018-06-21T02:46:01.110Z,1009.29
2018-06-21T02:47:01.091Z,1009.20
2018-06-21T02:48:01.072Z,1009.20
2018-06-21T02:49:01.051Z,1009.21
2018-06-21T02:50:01.019Z,1009.23
2018-06-21T02:51:00.999Z,1009.17
2018-06-21T02:52:00.974Z,1009.15
2018-06-21T02:53:00.948Z,1009.19
2018-06-21T02:54:00.927Z,1009.16
2018-06-21T02:55:00.901Z,1009.17
2018-06-21T02:56:00.880Z,1009.16
2018-06-21T02:57:00.854Z,1009.17
2018-06-21T02:58:00.835Z,1009.11
2018-06-21T02:59:00.810Z,1009.13
2018-06-21T03:00:00.787Z,1009.11
2018-06-21T03:01:00.763Z,1009.09
2018-06-21T03:02:00.748Z,1009.08
2018-06-21T03:03:00.715Z,1009.00
2018-06-21T03:04:00.722Z,1008.94
2018-06-21T03:05:00.676Z,1008.97
2018-06-21T03:06:00.645Z,1008.91
2018-06-21T03:07:00.625Z,1008.83
2018-06-21T03:08:00.602Z,1008.84
2018-06-21T03:09:00.575Z,1008.91
2018-06-21T03:10:00.553Z,1008.88
2018-06-21T03:11:00.545Z,1008.93
2018-06-21T03:12:00.510Z,1008.89
2018-06-21T03:13:00.485Z,1008.84
2018-06-21T03:14:00.462Z,1008.84
2018-06-21T03:15:00.447Z,1008.77
2018-06-21T03:16:00.415Z,1008.72
2018-06-21T03:17:00.390Z,1008.76
2018-06-21T03:18:00.372Z,1008.78
2018-06-21T03:19:00.346Z,1008.75
2018-06-21T03:20:00.324Z,1008.78
2018-06-21T03:21:00.303Z,1008.70
2018-06-21T03:22:00.338Z,1008.80
2018-06-21T03:23:00.253Z,1008.84
2018-06-21T03:24:00.230Z,1008.83
2018-06-21T03:25:00.362Z,1008.84
2018-06-21T03:26:00.188Z,1008.81
2018-06-21T03:27:00.159Z,1008.77
2018-06-21T03:28:00.137Z,1008.85
2018-06-21T03:29:00.112Z,1008.87
2018-06-21T03:30:00.097Z,1008.76
2018-06-21T03:31:00.069Z,1008.76
2018-06-21T03:32:00.051Z,1008.76
2018-06-21T03:33:00.074Z,1008.73
2018-06-21T03:33:59.998Z,1008.77
2018-06-21T03:34:59.972Z,1008.79
2018-06-21T03:35:59.951Z,1008.88
2018-06-21T03:36:59.926Z,1008.77
2018-06-21T03:37:59.902Z,1008.78
2018-06-21T03:38:59.880Z,1008.74
2018-06-21T03:39:59.858Z,1008.74
2018-06-21T03:40:59.834Z,1008.81
2018-06-21T03:41:59.812Z,1008.76
2018-06-21T03:42:59.786Z,1008.79
2018-06-21T03:43:59.778Z,1008.93
2018-06-21T03:44:59.739Z,1008.72
2018-06-21T03:45:59.716Z,1008.84
2018-06-21T03:46:59.693Z,1008.76
2018-06-21T03:47:59.674Z,1008.80
2018-06-21T03:48:59.649Z,1008.76
2018-06-21T03:49:59.623Z,1008.91
2018-06-21T03:50:59.601Z,1008.93
2018-06-21T03:51:59.578Z,1008.91
2018-06-21T03:52:59.551Z,1008.94
2018-06-21T03:53:59.880Z,1009.04
2018-06-21T03:54:59.706Z,1008.90
2018-06-21T03:55:59.683Z,1008.87
2018-06-21T03:56:59.457Z,1008.94
2018-06-21T03:57:59.434Z,1008.93
2018-06-21T03:58:59.412Z,1008.94
2018-06-21T03:59:59.542Z,1008.97
2018-06-21T04:00:59.366Z,1008.94
2018-06-21T04:01:59.340Z,1008.83
2018-06-21T04:02:59.515Z,1008.85
2018-06-21T04:03:59.289Z,1008.86
2018-06-21T04:04:59.268Z,1008.85
2018-06-21T04:05:59.241Z,1008.78
2018-06-21T04:06:59.218Z,1008.86
2018-06-21T04:07:59.196Z,1008.77
2018-06-21T04:08:59.170Z,1008.74
2018-06-21T04:09:59.145Z,1008.80
2018-06-21T04:10:59.120Z,1008.83
2018-06-21T04:11:59.148Z,1008.84
2018-06-21T04:12:59.274Z,1008.79
2018-06-21T04:13:59.047Z,1008.85
2018-06-21T04:14:59.023Z,1008.85
2018-06-21T04:15:58.998Z,1008.84
2018-06-21T04:16:58.972Z,1008.82
2018-06-21T04:17:58.949Z,1008.78
2018-06-21T04:18:58.925Z,1008.81
2018-06-21T04:19:58.902Z,1008.81
2018-06-21T04:20:58.877Z,1008.80
2018-06-21T04:21:58.852Z,1008.78
2018-06-21T04:22:58.826Z,1008.89
2018-06-21T04:23:58.952Z,1008.78
2018-06-21T04:24:58.776Z,1008.81
2018-06-21T04:25:58.956Z,1008.80
2018-06-21T04:26:58.729Z,1008.85
2018-06-21T04:27:58.705Z,1008.83
2018-06-21T04:28:58.680Z,1008.78
2018-06-21T04:29:58.660Z,1008.67
2018-06-21T04:30:58.634Z,1008.68
2018-06-21T04:31:58.608Z,1008.70
2018-06-21T04:32:58.589Z,1008.68
2018-06-21T04:33:58.567Z,1008.65
2018-06-21T04:34:58.534Z,1008.60
2018-06-21T04:35:58.510Z,1008.65
2018-06-21T04:36:58.490Z,1008.59
2018-06-21T04:37:58.564Z,1008.58
2018-06-21T04:38:58.442Z,1008.54
2018-06-21T04:39:58.415Z,1008.54
2018-06-21T04:40:58.391Z,1008.57
2018-06-21T04:41:58.366Z,1008.52
2018-06-21T04:42:58.341Z,1008.50
2018-06-21T04:43:58.315Z,1008.58
2018-06-21T04:44:58.291Z,1008.51
2018-06-21T04:45:58.335Z,1008.48
2018-06-21T04:46:58.245Z,1008.36
2018-06-21T04:47:58.221Z,1008.40
2018-06-21T04:48:58.195Z,1008.29
2018-06-21T04:49:58.372Z,1008.31
2018-06-21T04:50:58.144Z,1008.31
2018-06-21T04:51:58.120Z,1008.23
2018-06-21T04:52:58.094Z,1008.16
2018-06-21T04:53:58.070Z,1008.18
2018-06-21T04:54:58.048Z,1008.21
2018-06-21T04:55:58.029Z,1008.19
2018-06-21T04:56:59.011Z,1008.19
2018-06-21T04:57:58.132Z,1008.19
2018-06-21T04:58:57.950Z,1008.23
2018-06-21T04:59:57.956Z,1008.25
2018-06-21T05:00:57.901Z,1008.33
2018-06-21T05:01:58.079Z,1008.27
2018-06-21T05:02:57.850Z,1008.30
2018-06-21T05:03:58.179Z,1008.29
2018-06-21T05:04:57.801Z,1008.25
2018-06-21T05:05:58.181Z,1008.24
2018-06-21T05:06:57.754Z,1008.32
2018-06-21T05:07:57.931Z,1008.32
2018-06-21T05:08:57.703Z,1008.46
2018-06-21T05:09:57.680Z,1008.48
2018-06-21T05:10:57.653Z,1008.54
2018-06-21T05:11:57.629Z,1008.56
2018-06-21T05:12:57.603Z,1008.62
2018-06-21T05:13:57.578Z,1008.47
2018-06-21T05:14:57.554Z,1008.43
2018-06-21T05:15:57.530Z,1008.52
2018-06-21T05:16:57.516Z,1008.43
2018-06-21T05:17:57.479Z,1008.45
2018-06-21T05:18:57.455Z,1008.48
2018-06-21T05:19:57.436Z,1008.56
2018-06-21T05:20:57.406Z,1008.64
2018-06-21T05:21:57.383Z,1008.66
2018-06-21T05:22:57.355Z,1008.68
2018-06-21T05:23:57.328Z,1008.71
2018-06-21T05:24:57.306Z,1008.65
2018-06-21T05:25:57.279Z,1008.69
2018-06-21T05:26:57.305Z,1008.72
2018-06-21T05:27:57.232Z,1008.68
2018-06-21T05:28:57.209Z,1008.64
2018-06-21T05:29:57.183Z,1008.68
2018-06-21T05:30:57.157Z,1008.70
2018-06-21T05:31:57.166Z,1008.72
2018-06-21T05:32:57.107Z,1008.83
2018-06-21T05:33:57.086Z,1008.79
2018-06-21T05:34:57.054Z,1008.79
2018-06-21T05:35:57.030Z,1008.76
2018-06-21T05:36:57.004Z,1008.89
2018-06-21T05:37:56.984Z,1008.80
2018-06-21T05:38:56.956Z,1008.65
2018-06-21T05:39:56.933Z,1008.75
2018-06-21T05:40:56.905Z,1008.72
2018-06-21T05:41:56.881Z,1008.70
2018-06-21T05:42:56.854Z,1008.60
2018-06-21T05:43:56.829Z,1008.77
2018-06-21T05:44:56.804Z,1008.78
2018-06-21T05:45:56.779Z,1008.67
2018-06-21T05:46:56.756Z,1008.75
2018-06-21T05:47:56.731Z,1008.80
2018-06-21T05:48:56.705Z,1008.78
2018-06-21T05:49:56.686Z,1008.81
2018-06-21T05:50:56.654Z,1008.83
2018-06-21T05:51:56.641Z,1008.82
2018-06-21T05:52:56.610Z,1008.91
2018-06-21T05:53:56.580Z,1008.86
2018-06-21T05:54:56.558Z,1008.82
2018-06-21T05:55:56.548Z,1008.84
2018-06-21T05:56:56.504Z,1008.88
2018-06-21T05:57:56.484Z,1008.87
2018-06-21T05:58:56.452Z,1008.79
2018-06-21T05:59:56.432Z,1008.72
2018-06-21T06:00:56.402Z,1008.88
2018-06-21T06:01:56.440Z,1008.88
2018-06-21T06:02:56.352Z,1008.88
2018-06-21T06:03:56.327Z,1008.88
2018-06-21T06:04:56.301Z,1008.85
2018-06-21T06:05:56.275Z,1008.76
2018-06-21T06:06:56.253Z,1008.69
2018-06-21T06:07:56.232Z,1008.72
2018-06-21T06:08:56.216Z,1008.73
2018-06-21T06:09:56.179Z,1008.76
2018-06-21T06:10:56.152Z,1008.81
2018-06-21T06:11:56.139Z,1008.89
2018-06-21T06:12:56.099Z,1008.72
2018-06-21T06:13:56.075Z,1008.76
2018-06-21T06:14:56.052Z,1008.72
2018-06-21T06:15:56.032Z,1008.78
2018-06-21T06:16:56.002Z,1008.70
2018-06-21T06:17:55.976Z,1008.72
2018-06-21T06:18:56.153Z,1008.73
2018-06-21T06:19:55.937Z,1008.69
2018-06-21T06:20:55.901Z,1008.69
2018-06-21T06:21:55.879Z,1008.76
2018-06-21T06:22:55.850Z,1008.74
2018-06-21T06:23:55.824Z,1008.68
2018-06-21T06:24:55.803Z,1008.59
2018-06-21T06:25:55.777Z,1008.61
2018-06-21T06:26:55.751Z,1008.56
2018-06-21T06:27:55.728Z,1008.60
2018-06-21T06:28:55.707Z,1008.52
2018-06-21T06:29:55.678Z,1008.52
2018-06-21T06:30:55.651Z,1008.54
2018-06-21T06:31:55.625Z,1008.52
2018-06-21T06:32:55.600Z,1008.64
2018-06-21T06:33:55.576Z,1008.59
2018-06-21T06:34:55.553Z,1008.66
2018-06-21T06:35:55.526Z,1008.69
2018-06-21T06:36:55.501Z,1008.74
2018-06-21T06:37:55.477Z,1008.89
2018-06-21T06:38:55.454Z,1009.00
2018-06-21T06:39:55.429Z,1008.93
2018-06-21T06:40:55.403Z,1009.01
2018-06-21T06:41:55.380Z,1008.98
2018-06-21T06:42:55.351Z,1009.02
2018-06-21T06:43:55.327Z,1008.95
2018-06-21T06:44:55.300Z,1008.91
2018-06-21T06:45:55.275Z,1008.91
2018-06-21T06:46:55.253Z,1008.92
2018-06-21T06:47:55.229Z,1008.84
2018-06-21T06:48:55.201Z,1008.89
2018-06-21T06:49:55.327Z,1008.90
2018-06-21T06:50:55.152Z,1008.92
2018-06-21T06:51:55.128Z,1009.00
2018-06-21T06:52:55.106Z,1008.98
2018-06-21T06:53:55.077Z,1009.00
2018-06-21T06:54:55.052Z,1008.98
2018-06-21T06:55:55.027Z,1008.95
2018-06-21T06:56:55.003Z,1008.99
2018-06-21T06:57:54.975Z,1009.04
2018-06-21T06:58:54.955Z,1009.09
2018-06-21T06:59:54.924Z,1009.12
2018-06-21T07:00:54.898Z,1009.14
2018-06-21T07:01:54.874Z,1009.11
2018-06-21T07:02:54.855Z,1009.14
2018-06-21T07:03:54.822Z,1009.13
2018-06-21T07:04:54.796Z,1009.04
2018-06-21T07:05:54.772Z,1009.07
2018-06-21T07:06:54.746Z,1009.09
2018-06-21T07:07:54.721Z,1009.07
2018-06-21T07:08:54.706Z,1009.02
2018-06-21T07:09:54.671Z,1009.07
2018-06-21T07:10:54.651Z,1009.07
2018-06-21T07:11:54.624Z,1009.04
2018-06-21T07:12:54.597Z,1009.08
2018-06-21T07:13:54.571Z,1009.09
2018-06-21T07:14:54.547Z,1009.05
2018-06-21T07:15:54.520Z,1009.05
2018-06-21T07:16:54.495Z,1008.97
2018-06-21T07:17:54.471Z,1008.93
2018-06-21T07:18:54.451Z,1008.84
2018-06-21T07:19:54.424Z,1008.78
2018-06-21T07:20:54.399Z,1008.65
2018-06-21T07:21:54.373Z,1008.66
2018-06-21T07:22:54.352Z,1008.56
2018-06-21T07:23:54.325Z,1008.48
2018-06-21T07:24:54.300Z,1008.42
2018-06-21T07:25:54.278Z,1008.37
2018-06-21T07:26:54.250Z,1008.43
2018-06-21T07:27:54.225Z,1008.46
2018-06-21T07:28:54.200Z,1008.49
2018-06-21T07:29:54.176Z,1008.59
2018-06-21T07:30:54.156Z,1008.61
2018-06-21T07:31:54.135Z,1008.64
2018-06-21T07:32:54.104Z,1008.65
2018-06-21T07:33:54.081Z,1008.78
2018-06-21T07:34:54.057Z,1008.89
2018-06-21T07:35:54.033Z,1008.86
2018-06-21T07:36:54.005Z,1009.01
2018-06-21T07:37:53.980Z,1008.96
2018-06-21T07:38:53.961Z,1009.02
2018-06-21T07:39:53.931Z,1009.06
2018-06-21T07:40:53.912Z,1008.87
2018-06-21T07:41:53.879Z,1008.94
2018-06-21T07:42:53.857Z,1009.02
2018-06-21T07:43:53.832Z,1008.94
2018-06-21T07:44:53.807Z,1009.01
2018-06-21T07:45:53.781Z,1008.95
2018-06-21T07:46:53.818Z,1009.10
2018-06-21T07:47:53.730Z,1009.02
2018-06-21T07:48:53.707Z,1009.06
2018-06-21T07:49:53.689Z,1009.00
2018-06-21T07:50:53.660Z,1008.95
2018-06-21T07:51:53.636Z,1008.96
2018-06-21T07:52:53.614Z,1009.00
2018-06-21T07:53:53.660Z,1009.09
2018-06-21T07:54:53.560Z,1008.89
2018-06-21T07:55:53.537Z,1009.00
2018-06-21T07:56:53.512Z,1008.99
2018-06-21T07:57:53.487Z,1008.97
2018-06-21T07:58:53.465Z,1009.01
2018-06-21T07:59:53.447Z,1008.90
2018-06-21T08:00:53.421Z,1008.96
2018-06-21T08:01:53.394Z,1009.05
2018-06-21T08:02:53.369Z,1009.03
2018-06-21T08:03:53.347Z,1009.10
2018-06-21T08:04:53.320Z,1009.10
2018-06-21T08:05:53.296Z,1009.17
2018-06-21T08:06:53.275Z,1009.13
2018-06-21T08:07:53.250Z,1008.99
2018-06-21T08:08:53.229Z,1009.06
2018-06-21T08:09:53.204Z,1009.05
2018-06-21T08:10:53.381Z,1009.05
2018-06-21T08:11:53.158Z,1008.92
2018-06-21T08:12:53.180Z,1008.94
2018-06-21T08:13:53.115Z,1008.87
2018-06-21T08:14:53.084Z,1008.76
2018-06-21T08:15:53.064Z,1008.76
2018-06-21T08:16:53.038Z,1008.78
2018-06-21T08:17:53.015Z,1008.70
2018-06-21T08:18:52.993Z,1008.68
2018-06-21T08:19:52.972Z,1008.70
2018-06-21T08:20:52.946Z,1008.63
2018-06-21T08:21:52.923Z,1008.80
2018-06-21T08:22:52.907Z,1008.84
2018-06-21T08:23:52.875Z,1008.92
2018-06-21T08:24:52.851Z,1008.93
2018-06-21T08:25:52.840Z,1008.99
2018-06-21T08:26:52.876Z,1008.99
2018-06-21T08:27:52.787Z,1009.03
2018-06-21T08:28:52.760Z,1008.97
2018-06-21T08:29:52.737Z,1009.00
2018-06-21T08:30:52.716Z,1008.94
2018-06-21T08:31:52.692Z,1008.97
2018-06-21T08:32:52.669Z,1008.97
2018-06-21T08:33:52.647Z,1008.93
2018-06-21T08:34:52.621Z,1009.01
2018-06-21T08:35:52.599Z,1009.05
2018-06-21T08:36:52.582Z,1009.03
2018-06-21T08:37:52.557Z,1009.10
2018-06-21T08:38:52.566Z,1009.06
2018-06-21T08:39:52.508Z,1009.18
2018-06-21T08:40:52.490Z,1009.12
2018-06-21T08:41:52.470Z,1009.04
2018-06-21T08:42:52.439Z,1009.00
2018-06-21T08:43:52.418Z,1009.01
2018-06-21T08:44:52.395Z,1009.01
2018-06-21T08:45:52.642Z,1009.04
2018-06-21T08:46:52.349Z,1008.99
2018-06-21T08:47:52.324Z,1009.05
2018-06-21T08:48:52.300Z,1009.11
2018-06-21T08:49:52.279Z,1009.04
2018-06-21T08:50:52.257Z,1009.06
2018-06-21T08:51:52.236Z,1009.15
2018-06-21T08:52:52.213Z,1009.08
2018-06-21T08:53:52.190Z,1009.02
2018-06-21T08:54:52.166Z,1008.99
2018-06-21T08:55:52.143Z,1009.02
2018-06-21T08:56:52.120Z,1008.90
2018-06-21T08:57:52.101Z,1009.07
2018-06-21T08:58:52.079Z,1009.00
2018-06-21T08:59:52.064Z,1009.13
2018-06-21T09:00:52.031Z,1009.04
2018-06-21T09:01:52.007Z,1009.07
2018-06-21T09:02:52.000Z,1009.15
2018-06-21T09:03:51.981Z,1009.13
2018-06-21T09:04:51.942Z,1009.10
2018-06-21T09:05:51.921Z,1009.12
2018-06-21T09:06:51.899Z,1009.14
2018-06-21T09:07:51.875Z,1009.14
2018-06-21T09:08:51.851Z,1009.09
2018-06-21T09:09:51.829Z,1009.27
2018-06-21T09:10:51.812Z,1009.13
2018-06-21T09:11:51.791Z,1009.32
2018-06-21T09:12:51.767Z,1009.23
2018-06-21T09:13:51.743Z,1009.18
2018-06-21T09:14:51.721Z,1009.35
2018-06-21T09:15:51.700Z,1009.37
2018-06-21T09:16:51.678Z,1009.41
2018-06-21T09:17:51.657Z,1009.36
2018-06-21T09:18:51.632Z,1009.44
2018-06-21T09:19:51.813Z,1009.51
2018-06-21T09:20:51.596Z,1009.59
2018-06-21T09:21:51.769Z,1009.28
2018-06-21T09:22:51.547Z,1009.34
2018-06-21T09:23:54.351Z,1009.34
2018-06-21T09:24:51.505Z,1009.37
2018-06-21T09:25:51.484Z,1009.33
2018-06-21T09:26:51.462Z,1009.20
2018-06-21T09:27:51.440Z,1009.41
2018-06-21T09:28:51.422Z,1009.09
2018-06-21T09:29:51.398Z,1009.23
2018-06-21T09:30:51.377Z,1009.07
2018-06-21T09:31:51.357Z,1008.99
2018-06-21T09:32:51.335Z,1009.17
2018-06-21T09:33:51.316Z,1008.94
2018-06-21T09:34:51.296Z,1008.97
2018-06-21T09:35:51.287Z,1009.07
2018-06-21T09:36:51.254Z,1008.91
2018-06-21T09:37:51.233Z,1009.05
2018-06-21T09:38:51.209Z,1009.02
2018-06-21T09:39:51.189Z,1008.96
2018-06-21T09:40:51.169Z,1009.01
2018-06-21T09:41:51.217Z,1009.05
2018-06-21T09:42:51.126Z,1008.96
2018-06-21T09:44:03.825Z,1008.83
2018-06-21T09:44:51.085Z,1008.88
2018-06-21T09:45:51.062Z,1008.90
2018-06-21T09:46:51.040Z,1008.86
2018-06-21T09:47:51.018Z,1008.78
2018-06-21T09:48:51.000Z,1008.80
2018-06-21T09:49:50.973Z,1008.88
2018-06-21T09:50:50.950Z,1008.62
2018-06-21T09:51:50.929Z,1008.68
2018-06-21T09:52:50.929Z,1008.92
2018-06-21T09:53:50.884Z,1008.95
2018-06-21T09:54:51.073Z,1008.95
2018-06-21T09:55:50.844Z,1008.87
2018-06-21T09:56:50.819Z,1009.02
2018-06-21T09:57:50.808Z,1008.92
2018-06-21T09:58:50.771Z,1008.93
2018-06-21T09:59:50.750Z,1008.84
2018-06-21T10:00:50.724Z,1008.97
2018-06-21T10:01:50.712Z,1009.08
2018-06-21T10:02:50.686Z,1008.73
2018-06-21T10:03:50.664Z,1009.01
2018-06-21T10:04:50.636Z,1009.41
2018-06-21T10:05:50.621Z,1009.68
2018-06-21T10:06:50.591Z,1010.02
2018-06-21T10:07:50.568Z,1009.89
2018-06-21T10:08:50.548Z,1009.65
2018-06-21T10:09:50.526Z,1009.66
2018-06-21T10:10:50.507Z,1009.45
2018-06-21T10:11:50.488Z,1009.45
2018-06-21T10:12:50.467Z,1009.42
2018-06-21T10:13:50.445Z,1009.38
2018-06-21T10:14:50.423Z,1009.25
2018-06-21T10:15:50.432Z,1009.18
2018-06-21T10:16:50.382Z,1009.18
2018-06-21T10:17:50.363Z,1009.16
2018-06-21T10:18:50.342Z,1009.17
2018-06-21T10:19:50.329Z,1009.13
2018-06-21T10:20:50.305Z,1009.34
2018-06-21T10:21:50.280Z,1009.38
2018-06-21T10:22:50.262Z,1009.23
2018-06-21T10:23:50.247Z,1009.43
2018-06-21T10:24:50.218Z,1009.72
2018-06-21T10:25:50.400Z,1009.71
2018-06-21T10:26:50.384Z,1009.70
2018-06-21T10:27:50.508Z,1009.50
2018-06-21T10:28:50.328Z,1009.80
2018-06-21T10:29:50.103Z,1009.76
2018-06-21T10:30:50.283Z,1009.79
2018-06-21T10:31:50.058Z,1009.68
2018-06-21T10:32:50.033Z,1009.73
2018-06-21T10:33:50.211Z,1009.69
2018-06-21T10:34:49.985Z,1009.61
2018-06-21T10:35:49.960Z,1009.66
2018-06-21T10:36:49.984Z,1009.84
2018-06-21T10:37:50.112Z,1009.64
2018-06-21T10:38:49.883Z,1009.68
2018-06-21T10:39:49.858Z,1009.61
2018-06-21T10:40:49.832Z,1009.61
2018-06-21T10:41:50.008Z,1009.49
2018-06-21T10:42:49.986Z,1009.51
2018-06-21T10:43:49.763Z,1009.43
2018-06-21T10:44:49.738Z,1009.48
2018-06-21T10:45:49.927Z,1009.52
2018-06-21T10:46:49.881Z,1009.42
2018-06-21T10:47:49.654Z,1009.41
2018-06-21T10:48:49.628Z,1009.60
2018-06-21T10:49:49.610Z,1009.65
2018-06-21T10:50:49.577Z,1009.68
2018-06-21T10:51:49.551Z,1009.63
2018-06-21T10:52:49.525Z,1009.66
2018-06-21T10:53:49.500Z,1009.73
2018-06-21T10:54:49.478Z,1009.78
2018-06-21T10:55:49.463Z,1009.74
2018-06-21T10:56:49.425Z,1009.64
2018-06-21T10:57:49.402Z,1009.63
2018-06-21T10:58:49.372Z,1009.72
2018-06-21T10:59:49.347Z,1009.57
2018-06-21T11:00:49.320Z,1009.50
2018-06-21T11:01:49.300Z,1009.43
2018-06-21T11:02:49.281Z,1009.59
2018-06-21T11:03:49.248Z,1009.57
2018-06-21T11:04:49.231Z,1009.57
2018-06-21T11:05:49.200Z,1009.60
2018-06-21T11:06:49.182Z,1009.51
2018-06-21T11:07:49.147Z,1009.60
2018-06-21T11:08:49.121Z,1009.50
2018-06-21T11:09:49.101Z,1009.46
2018-06-21T11:10:49.070Z,1009.45
2018-06-21T11:11:49.044Z,1009.39
2018-06-21T11:12:49.019Z,1009.56
2018-06-21T11:13:48.994Z,1009.49
2018-06-21T11:14:49.208Z,1009.58
2018-06-21T11:15:48.946Z,1009.46
2018-06-21T11:16:48.963Z,1009.53
2018-06-21T11:17:48.895Z,1009.45
2018-06-21T11:18:48.869Z,1009.60
2018-06-21T11:19:48.843Z,1009.44
2018-06-21T11:20:48.818Z,1009.46
2018-06-21T11:21:48.795Z,1009.52
2018-06-21T11:22:48.769Z,1009.73
2018-06-21T11:23:48.744Z,1009.74
2018-06-21T11:24:48.718Z,1009.64
2018-06-21T11:25:48.694Z,1009.59
2018-06-21T11:26:48.677Z,1009.64
2018-06-21T11:27:48.681Z,1009.60
2018-06-21T11:28:48.624Z,1009.49
2018-06-21T11:29:48.597Z,1009.81
2018-06-21T11:30:48.567Z,1009.97
2018-06-21T11:31:48.543Z,1009.57
2018-06-21T11:32:48.519Z,1010.09
2018-06-21T11:33:48.491Z,1009.44
2018-06-21T11:34:48.469Z,1009.71
2018-06-21T11:35:48.444Z,1009.91
2018-06-21T11:36:48.418Z,1009.91
2018-06-21T11:37:48.594Z,1009.89
2018-06-21T11:38:48.568Z,1010.00
2018-06-21T11:39:48.544Z,1010.25
2018-06-21T11:40:48.320Z,1010.18
2018-06-21T11:41:48.293Z,1010.44
2018-06-21T11:42:48.465Z,1010.17
2018-06-21T11:43:48.239Z,1010.28
2018-06-21T11:44:48.211Z,1010.33
2018-06-21T11:45:48.196Z,1010.17
2018-06-21T11:46:48.222Z,1010.39
2018-06-21T11:47:48.135Z,1010.68
2018-06-21T11:48:48.137Z,1011.01
2018-06-21T11:49:48.083Z,1010.65
2018-06-21T11:50:48.057Z,1011.57
2018-06-21T11:51:48.039Z,1010.65
2018-06-21T11:52:48.212Z,1010.52
2018-06-21T11:53:47.997Z,1011.08
2018-06-21T11:54:48.160Z,1010.53
2018-06-21T11:55:47.936Z,1010.60
2018-06-21T11:56:47.912Z,1011.94
2018-06-21T11:57:47.888Z,1010.70
2018-06-21T11:58:47.867Z,1011.98
2018-06-21T11:59:48.052Z,1012.45
2018-06-21T12:00:47.824Z,1011.52
2018-06-21T12:01:47.860Z,1011.15
2018-06-21T12:02:47.978Z,1010.51
2018-06-21T12:03:47.756Z,1010.57
2018-06-21T12:04:47.735Z,1010.52